La Palma > ESTACION METEOROLÓGICA Miraflores - S/C La Palma

DATOS ACTUALES Online

Ultima actulizacion 3 minutos

19.8 ºC

Temperatura

97

Humedad (%)

1015.0

Presión (mb)

52.8

Precipitación (mm)

1.62 NE

Viento (Km/h)

DATOS DIARIOS

Temperatura últimas 24 horas (ºC)

Humedad últimas 24 horas (%)

Presión atmosférica últimas 24 horas (mb)

Precipitaciones últimas 23 horas (mm)

Viento últimas 24 horas (Km/h)

Hora Temperatura (°C) ºC Precipitación (mm) mm Presión (mb) mb Humedad (%) % Viento (Km/h) km/h
24 - 23:00 19.3 0.2 1018 77 6.3 NW
25 - 00:00 20.3 0.2 1019 75 0 W
25 - 01:00 19.9 0.2 1018 82 4.68 W
25 - 02:00 20 0.2 1017 80 0 NE
25 - 03:00 19.8 0.2 1017 79 0 NW
25 - 04:00 19.8 0.2 1016 81 0 NW
25 - 05:00 19.8 0.2 1016 79 4.68 NW
25 - 06:00 19.9 0.2 1016 80 4.68 NW
25 - 07:00 20.8 0.2 1016 81 3.06 SE
25 - 08:00 19.4 0 1017 90 0 NE
25 - 09:00 19.6 0 1018 89 1.62 NW
25 - 10:00 19.3 0.4 1018 89 6.3 W
25 - 11:00 19.8 1.2 1018 91 0 NE
25 - 12:00 19.3 6.4 1018 94 3.06 NE
25 - 13:00 19.3 11.2 1017 96 0 SW
25 - 14:00 19.3 15.8 1016 95 3.06 E
25 - 15:00 19.8 19 1015 96 0 NE
25 - 16:00 19.7 20.2 1015 96 0 NE
25 - 17:00 19.6 21.2 1015 96 0 W
25 - 18:00 19.7 24.6 1015 97 1.62 NE
25 - 19:00 19.9 35.4 1015 97 1.62 NE
25 - 20:00 19.8 41.4 1015 97 0 SE
25 - 21:00 19.7 43.8 1015 97 3.06 NW
25 - 22:00 20.1 49 1015 98 3.06 SE
25 - 23:00 19.8 52.8 1015 97 1.62 NE
Apalmet utiliza cookies propias y de terceros para mejorar la usabilidad y la experiencia web. Política de cookies.